Terminal Aerodrome Forecast
Issued by NWS

Home | Current Version | Previous Version | Graphics & Text | Print | Product List | Glossary On
Versions: 1 2 3 4 5 6 7 8 9 10 11 12 13
000
FTUS43 KBIS 252300
TAFMOT
TAF
KMOT 252335Z 2600/2624 21012KT P6SM OVC080
     FM260400 28018G27KT P6SM SCT070 BKN120
     FM261500 28015KT P6SM SCT250=

USA.gov is the U.S. government's official web portal to all federal, state and local government web resources and services.